Time;durP1;ratioP1;P1;durP2;ratioP2;P2;SDS_P1;SDS_P2;PMS_P1;PMS_P2;Temp;Humidity;BMP_temperature;BMP_pressure;BME280_temperature;BME280_humidity;BME280_pressure;Samples;Min_cycle;Max_cycle;Signal;HPM_P1;HPM_P2
2022/09/19 00:01:10;;;;;;;6.93;1.20;;;11.80;99.90;;;;;;5076279;28;20128;-73
2022/09/19 00:03:37;;;;;;;11.13;1.20;;;11.80;99.90;;;;;;5075734;28;20390;-73
2022/09/19 00:06:04;;;;;;;8.80;1.58;;;11.80;99.90;;;;;;5082541;28;20098;-73
2022/09/19 00:08:30;;;;;;;8.27;1.88;;;11.80;99.90;;;;;;5085957;28;20047;-73
2022/09/19 00:11:00;;;;;;;22.13;2.38;;;11.80;99.90;;;;;;5078563;28;20052;-73
2022/09/19 00:13:25;;;;;;;13.30;2.58;;;11.80;99.90;;;;;;5068932;28;20034;-73
2022/09/19 00:15:51;;;;;;;10.33;1.87;;;11.80;99.90;;;;;;5066893;28;20490;-73
2022/09/19 00:18:17;;;;;;;8.70;1.40;;;11.80;99.90;;;;;;5062189;28;20475;-72
2022/09/19 00:20:43;;;;;;;11.67;1.80;;;11.80;99.90;;;;;;5064365;28;20278;-73
2022/09/19 00:25:59;;;;;;;18.63;2.47;;;11.80;99.90;;;;;;5065622;28;20059;-73
2022/09/19 00:28:27;;;;;;;13.57;2.10;;;11.90;99.90;;;;;;5069356;28;20033;-72
2022/09/19 00:30:54;;;;;;;7.43;1.15;;;11.90;99.90;;;;;;5039103;28;20164;-72
2022/09/19 00:33:20;;;;;;;7.38;1.17;;;11.80;99.90;;;;;;5045646;28;20042;-73
2022/09/19 00:35:50;;;;;;;10.75;1.30;;;11.80;99.90;;;;;;5068653;28;20039;-72
2022/09/19 00:38:16;;;;;;;7.28;1.42;;;11.80;99.90;;;;;;5071297;28;20046;-72
2022/09/19 00:40:42;;;;;;;8.18;1.60;;;11.80;99.90;;;;;;5075416;28;20502;-72
2022/09/19 00:43:13;;;;;;;10.23;1.30;;;11.80;99.90;;;;;;5067469;28;20387;-73
2022/09/19 00:45:39;;;;;;;6.82;1.30;;;11.80;99.90;;;;;;5063249;28;20335;-73
2022/09/19 00:48:05;;;;;;;7.90;1.70;;;11.80;99.90;;;;;;5073236;28;20073;-73
2022/09/19 00:50:31;;;;;;;8.15;1.35;;;11.70;99.90;;;;;;5050073;28;20042;-73
2022/09/19 00:53:05;;;;;;;7.78;1.40;;;11.70;99.90;;;;;;5074334;28;20072;-73
2022/09/19 00:55:31;;;;;;;17.70;1.90;;;11.70;99.90;;;;;;5066004;28;20121;-73
2022/09/19 00:58:09;;;;;;;10.45;1.85;;;11.70;99.90;;;;;;5049289;28;20114;-73
2022/09/19 01:00:35;;;;;;;11.15;1.50;;;11.70;99.90;;;;;;5049164;28;20061;-72
2022/09/19 01:03:05;;;;;;;15.85;2.55;;;11.70;99.90;;;;;;5064400;28;20056;-72
2022/09/19 01:05:45;;;;;;;15.35;2.00;;;11.70;99.90;;;;;;5076765;28;20437;-72
2022/09/19 01:08:52;;;;;;;19.27;2.20;;;11.80;99.90;;;;;;5056194;28;20044;-72
2022/09/19 01:11:29;;;;;;;18.42;2.42;;;11.80;99.90;;;;;;4972399;28;20050;-72
2022/09/19 01:14:28;;;;;;;12.13;1.92;;;11.90;99.90;;;;;;4972375;28;20093;-72
2022/09/19 01:17:06;;;;;;;15.15;2.63;;;11.90;99.90;;;;;;5054755;28;20050;-72
2022/09/19 01:19:53;;;;;;;13.88;1.65;;;12.00;99.90;;;;;;5073519;28;20048;-72
2022/09/19 01:22:24;;;;;;;14.00;1.50;;;12.00;99.90;;;;;;5066393;28;20084;-72
2022/09/19 01:25:06;;;;;;;13.43;1.98;;;12.00;99.90;;;;;;5069384;28;20062;-72
2022/09/19 01:27:56;;;;;;;12.75;2.13;;;12.00;99.90;;;;;;5075665;28;20050;-72
2022/09/19 01:30:22;;;;;;;11.30;1.58;;;12.00;99.90;;;;;;5073334;28;20048;-72
2022/09/19 01:33:06;;;;;;;15.93;1.85;;;12.00;99.90;;;;;;5082064;28;20038;-72
2022/09/19 01:35:37;;;;;;;16.27;1.80;;;12.00;99.90;;;;;;5061536;28;20079;-72
2022/09/19 01:38:24;;;;;;;12.77;2.13;;;12.00;99.90;;;;;;5074873;28;20049;-73
2022/09/19 01:40:52;;;;;;;10.27;1.60;;;12.00;99.90;;;;;;5067863;28;20042;-73
2022/09/19 01:43:19;;;;;;;10.60;1.38;;;11.90;99.90;;;;;;5033582;28;20292;-72
2022/09/19 01:45:47;;;;;;;10.48;1.77;;;11.90;99.90;;;;;;5065591;28;20057;-72
2022/09/19 01:48:19;;;;;;;13.52;1.40;;;11.90;99.90;;;;;;5065805;28;20041;-72
2022/09/19 01:50:45;;;;;;;14.32;1.98;;;12.00;99.90;;;;;;5072354;28;20129;-72
2022/09/19 01:53:36;;;;;;;8.07;1.45;;;12.00;99.90;;;;;;5051135;28;20042;-72
2022/09/19 01:56:12;;;;;;;16.48;1.83;;;11.90;99.90;;;;;;4996042;28;20039;-72
2022/09/19 01:58:50;;;;;;;9.88;2.03;;;12.00;99.90;;;;;;5057485;28;20034;-72
2022/09/19 02:01:32;;;;;;;9.32;1.80;;;12.00;99.90;;;;;;5072096;28;20038;-72
2022/09/19 02:04:02;;;;;;;13.00;2.17;;;12.00;99.90;;;;;;5066144;28;20049;-72
2022/09/19 02:06:48;;;;;;;9.63;2.15;;;12.00;99.90;;;;;;5064802;28;20057;-73
2022/09/19 02:09:26;;;;;;;12.65;1.80;;;12.00;99.90;;;;;;5064120;28;20041;-72
2022/09/19 02:11:54;;;;;;;15.65;1.52;;;12.00;99.90;;;;;;5073402;28;20068;-72
2022/09/19 02:14:24;;;;;;;11.45;1.65;;;11.90;99.90;;;;;;5050314;28;20037;-72
2022/09/19 02:17:03;;;;;;;11.75;1.70;;;11.90;99.90;;;;;;5070248;28;20050;-72
2022/09/19 02:19:52;;;;;;;13.05;1.65;;;11.90;99.90;;;;;;5070654;28;20535;-72
2022/09/19 02:22:31;;;;;;;13.68;2.53;;;11.90;99.90;;;;;;5078224;28;20052;-71
2022/09/19 02:25:05;;;;;;;10.68;1.75;;;11.80;99.90;;;;;;5058529;28;20421;-72
2022/09/19 02:27:39;;;;;;;15.82;2.47;;;11.80;99.90;;;;;;5029800;28;20509;-72
2022/09/19 02:30:08;;;;;;;12.30;1.40;;;11.80;99.90;;;;;;5000998;28;20054;-73
2022/09/19 02:32:47;;;;;;;9.85;1.60;;;11.70;99.90;;;;;;5016195;28;20041;-72
2022/09/19 02:35:14;;;;;;;11.00;1.67;;;11.70;99.90;;;;;;5009888;28;20030;-73
2022/09/19 02:37:47;;;;;;;11.30;1.40;;;11.70;99.90;;;;;;5003210;28;20040;-73
2022/09/19 02:40:35;;;;;;;11.35;1.50;;;11.70;99.90;;;;;;5026812;28;20042;-73
2022/09/19 02:43:30;;;;;;;12.10;1.50;;;11.80;99.90;;;;;;5060068;28;20044;-72
2022/09/19 02:46:05;;;;;;;13.60;1.88;;;11.80;99.90;;;;;;5036986;28;20058;-72
2022/09/19 02:48:41;;;;;;;16.45;2.72;;;11.80;99.90;;;;;;5001146;28;20127;-72
2022/09/19 02:51:16;;;;;;;12.50;1.50;;;11.80;99.90;;;;;;5007492;28;20567;-72
2022/09/19 02:53:46;;;;;;;12.70;1.60;;;11.90;99.90;;;;;;5023676;28;20046;-72
2022/09/19 02:56:15;;;;;;;11.90;1.27;;;11.80;99.90;;;;;;5070791;28;20033;-72
2022/09/19 02:58:57;;;;;;;10.63;1.90;;;11.90;99.90;;;;;;5060718;28;20035;-73
2022/09/19 03:01:26;;;;;;;19.10;2.25;;;11.80;99.90;;;;;;5040893;28;20037;-73
2022/09/19 03:04:16;;;;;;;8.43;1.48;;;11.80;99.90;;;;;;5060730;28;20053;-73
2022/09/19 03:07:01;;;;;;;14.75;2.05;;;11.80;99.90;;;;;;5048819;28;20077;-73
2022/09/19 03:09:31;;;;;;;10.32;1.35;;;11.80;99.90;;;;;;4989326;28;20087;-73
2022/09/19 03:12:20;;;;;;;9.55;1.38;;;11.80;99.90;;;;;;5038907;28;20057;-73
2022/09/19 03:14:57;;;;;;;10.10;1.23;;;11.80;99.90;;;;;;5010008;28;20049;-74
2022/09/19 03:17:25;;;;;;;;;;;11.80;99.90;;;;;;5039758;28;20082;-73
2022/09/19 03:19:51;;;;;;;10.68;1.60;;;11.80;99.90;;;;;;5027397;28;19924;-73
2022/09/19 03:22:17;;;;;;;17.50;1.92;;;11.80;99.90;;;;;;5004799;28;20492;-73
2022/09/19 03:24:43;;;;;;;8.33;1.40;;;11.70;99.90;;;;;;5042523;28;20052;-73
2022/09/19 03:27:08;;;;;;;11.85;2.35;;;11.70;99.90;;;;;;5080015;28;20040;-73
2022/09/19 03:29:35;;;;;;;15.65;1.70;;;11.70;99.90;;;;;;5083466;28;20118;-73
2022/09/19 03:32:02;;;;;;;18.52;2.25;;;11.70;99.90;;;;;;5080875;28;20093;-74
2022/09/19 03:34:28;;;;;;;;;;;11.70;99.90;;;;;;5078894;28;20363;-73
2022/09/19 03:36:54;;;;;;;10.40;1.80;;;11.70;99.90;;;;;;5075894;28;19963;-73
2022/09/19 03:39:19;;;;;;;15.53;1.73;;;11.80;99.90;;;;;;5059632;28;20531;-73
2022/09/19 03:41:45;;;;;;;14.03;1.97;;;11.90;99.90;;;;;;5076192;28;20410;-72
2022/09/19 03:44:12;;;;;;;12.07;1.85;;;11.90;99.90;;;;;;5082414;28;20751;-73
2022/09/19 03:46:38;;;;;;;10.38;1.60;;;11.90;99.90;;;;;;5079277;28;20036;-73
2022/09/19 03:49:03;;;;;;;9.60;1.70;;;11.90;99.90;;;;;;5083861;28;20056;-73
2022/09/19 03:51:30;;;;;;;14.90;2.67;;;12.00;99.90;;;;;;5083336;28;20051;-73
2022/09/19 03:53:56;;;;;;;11.45;2.00;;;12.00;99.90;;;;;;5080359;28;20051;-73
2022/09/19 03:56:22;;;;;;;15.32;2.08;;;12.00;99.90;;;;;;5080449;28;20113;-73
2022/09/19 03:58:48;;;;;;;16.10;2.25;;;12.00;99.90;;;;;;5083188;28;20032;-73
2022/09/19 04:01:14;;;;;;;17.30;1.83;;;12.00;99.90;;;;;;5075909;28;20037;-73
2022/09/19 04:03:40;;;;;;;12.77;1.80;;;12.00;99.90;;;;;;5062077;28;20289;-73
2022/09/19 04:06:07;;;;;;;17.13;2.33;;;11.90;99.90;;;;;;5080461;28;20032;-73
2022/09/19 04:08:33;;;;;;;;;;;11.90;99.90;;;;;;5075908;28;20048;-73
2022/09/19 04:10:59;;;;;;;19.73;2.67;;;11.90;99.90;;;;;;5081336;28;19995;-73
2022/09/19 04:13:25;;;;;;;14.68;2.53;;;11.90;99.90;;;;;;5069192;28;20115;-73
2022/09/19 04:15:51;;;;;;;9.63;2.60;;;11.90;99.90;;;;;;5075865;28;20040;-73
2022/09/19 04:18:17;;;;;;;19.30;2.80;;;11.90;99.90;;;;;;5075841;28;20155;-73
2022/09/19 04:20:45;;;;;;;15.27;1.88;;;11.90;99.90;;;;;;5073344;28;20490;-73
2022/09/19 04:23:16;;;;;;;12.77;2.10;;;11.90;99.90;;;;;;5082865;28;20063;-74
2022/09/19 04:25:44;;;;;;;9.23;1.45;;;11.90;99.90;;;;;;5026683;28;20429;-74
2022/09/19 04:28:11;;;;;;;13.25;1.75;;;11.90;99.90;;;;;;5012061;28;20054;-73
2022/09/19 04:30:40;;;;;;;11.55;1.73;;;11.90;99.90;;;;;;5048102;28;20043;-75
2022/09/19 04:33:07;;;;;;;8.27;1.40;;;11.90;99.90;;;;;;5005407;28;20099;-75
2022/09/19 04:35:35;;;;;;;8.30;1.25;;;11.80;99.90;;;;;;4998086;28;20036;-74
2022/09/19 04:38:06;;;;;;;9.88;1.38;;;11.80;99.90;;;;;;5018206;28;20050;-73
2022/09/19 04:40:43;;;;;;;12.15;1.65;;;11.80;99.90;;;;;;5004697;28;20030;-73
2022/09/19 04:43:10;;;;;;;13.25;2.05;;;11.80;99.90;;;;;;5037592;28;20046;-73
2022/09/19 04:45:37;;;;;;;10.95;1.73;;;11.80;99.90;;;;;;5017268;28;20486;-73
2022/09/19 04:48:06;;;;;;;17.52;2.28;;;11.80;99.90;;;;;;5020902;28;20093;-73
2022/09/19 04:50:36;;;;;;;18.50;2.42;;;11.80;99.90;;;;;;5038448;28;20456;-72
2022/09/19 04:53:03;;;;;;;19.67;2.75;;;11.90;99.90;;;;;;5050079;28;20040;-74
2022/09/19 04:55:29;;;;;;;18.73;2.30;;;11.90;99.90;;;;;;5013435;28;20537;-74
2022/09/19 04:57:56;;;;;;;19.90;3.10;;;11.90;99.90;;;;;;4998120;28;20046;-73
2022/09/19 05:00:38;;;;;;;17.60;2.65;;;11.90;99.90;;;;;;5026922;28;20551;-73
2022/09/19 05:03:07;;;;;;;18.50;3.05;;;11.90;99.90;;;;;;5026233;28;20050;-74
2022/09/19 05:05:34;;;;;;;15.93;2.40;;;11.90;99.90;;;;;;5022922;28;20052;-73
2022/09/19 05:08:00;;;;;;;15.60;2.03;;;11.90;99.90;;;;;;5011152;28;20467;-73
2022/09/19 05:10:26;;;;;;;22.45;2.75;;;11.90;99.90;;;;;;5004111;28;20044;-72
2022/09/19 05:12:52;;;;;;;13.45;2.42;;;11.90;99.90;;;;;;5014109;28;20463;-73
2022/09/19 05:15:17;;;;;;;16.90;3.00;;;12.00;99.90;;;;;;5040621;28;20096;-73
2022/09/19 05:17:43;;;;;;;17.33;2.30;;;11.90;99.90;;;;;;5039706;28;20331;-73
2022/09/19 05:20:09;;;;;;;20.30;2.47;;;12.00;99.90;;;;;;5029977;28;20194;-73
2022/09/19 05:22:35;;;;;;;18.55;2.40;;;11.90;99.90;;;;;;5020664;28;20057;-73
2022/09/19 05:25:04;;;;;;;14.73;2.15;;;12.00;99.90;;;;;;5060590;28;20063;-73
2022/09/19 05:27:36;;;;;;;21.65;2.45;;;12.00;99.90;;;;;;5049545;28;20042;-73
2022/09/19 05:30:03;;;;;;;19.33;2.15;;;12.00;99.90;;;;;;5087378;28;20078;-73
2022/09/19 05:32:29;;;;;;;14.68;2.53;;;12.00;99.90;;;;;;5087363;28;20048;-74
2022/09/19 05:34:56;;;;;;;18.17;2.15;;;12.00;99.90;;;;;;5068531;28;20039;-73
2022/09/19 05:37:22;;;;;;;18.02;2.10;;;12.00;99.90;;;;;;5078542;28;20043;-73
2022/09/19 05:39:48;;;;;;;16.55;2.28;;;12.00;99.90;;;;;;5084630;28;20036;-73
2022/09/19 05:42:14;;;;;;;15.30;1.98;;;12.00;99.90;;;;;;5060761;28;20039;-73
2022/09/19 05:44:39;;;;;;;13.63;1.58;;;12.10;99.90;;;;;;5077716;28;20059;-73
2022/09/19 05:47:05;;;;;;;11.40;1.80;;;12.10;99.90;;;;;;5082328;28;20047;-73
2022/09/19 05:49:31;;;;;;;13.95;1.42;;;12.10;99.90;;;;;;5082584;28;20282;-73
2022/09/19 05:53:51;;;;;;;11.85;1.55;;;12.10;99.90;;;;;;5050300;28;20044;-73
2022/09/19 05:54:42;;;;;;;13.45;1.42;;;12.20;99.90;;;;;;5065949;28;20529;-73
2022/09/19 05:57:08;;;;;;;10.45;1.67;;;12.60;99.90;;;;;;5076842;28;20102;-73
2022/09/19 05:59:33;;;;;;;10.33;1.50;;;12.20;99.90;;;;;;5062472;28;20133;-73
2022/09/19 06:02:01;;;;;;;15.77;1.77;;;12.10;99.90;;;;;;5077769;28;20074;-73
2022/09/19 06:04:26;;;;;;;13.32;2.00;;;12.20;99.90;;;;;;5075089;28;20613;-73
2022/09/19 06:06:52;;;;;;;10.45;1.75;;;12.10;99.90;;;;;;5082208;28;20043;-73
2022/09/19 06:09:18;;;;;;;11.93;1.58;;;12.10;99.90;;;;;;5084716;28;20040;-73
2022/09/19 06:11:43;;;;;;;11.80;1.80;;;12.10;99.90;;;;;;5055657;28;20039;-73
2022/09/19 06:14:15;;;;;;;12.60;1.80;;;12.10;99.90;;;;;;5035164;28;20067;-73
2022/09/19 06:16:41;;;;;;;11.88;1.75;;;12.10;99.90;;;;;;5083457;28;20036;-73
2022/09/19 06:19:07;;;;;;;;;;;12.10;99.90;;;;;;5079889;28;20036;-73
2022/09/19 06:21:33;;;;;;;10.23;2.03;;;12.20;99.90;;;;;;5078131;28;19916;-73
2022/09/19 06:23:58;;;;;;;19.90;2.13;;;12.20;99.90;;;;;;5083501;28;20043;-73
2022/09/19 06:26:26;;;;;;;11.93;2.03;;;12.30;99.90;;;;;;5055420;28;20287;-73
2022/09/19 06:28:51;;;;;;;5.63;1.10;;;12.40;99.90;;;;;;5002418;28;20374;-73
2022/09/19 06:31:18;;;;;;;12.00;1.80;;;12.40;99.90;;;;;;4988348;28;20168;-72
2022/09/19 06:33:43;;;;;;;6.63;1.42;;;12.50;99.90;;;;;;4998805;28;20326;-72
2022/09/19 06:36:10;;;;;;;10.95;1.20;;;12.50;99.90;;;;;;5007943;28;20066;-72
2022/09/19 06:38:40;;;;;;;10.00;1.63;;;12.40;99.90;;;;;;5015370;28;20460;-73
2022/09/19 06:41:10;;;;;;;10.32;1.83;;;12.40;99.90;;;;;;5024671;28;20437;-73
2022/09/19 06:43:36;;;;;;;9.20;1.92;;;12.40;99.90;;;;;;5016413;28;20099;-73
2022/09/19 06:46:02;;;;;;;10.13;1.60;;;12.40;99.90;;;;;;5002548;28;20035;-72
2022/09/19 06:48:28;;;;;;;14.23;1.83;;;12.40;99.90;;;;;;5052504;28;20048;-73
2022/09/19 06:50:53;;;;;;;12.10;1.60;;;12.40;99.90;;;;;;5022546;28;20046;-73
2022/09/19 06:53:22;;;;;;;11.27;1.80;;;12.50;99.90;;;;;;5002677;28;20306;-72
2022/09/19 06:55:48;;;;;;;12.48;1.85;;;12.60;99.90;;;;;;4999082;28;20042;-73
2022/09/19 06:58:15;;;;;;;12.23;1.60;;;12.60;99.90;;;;;;5020256;28;20524;-72
2022/09/19 07:00:44;;;;;;;8.98;1.33;;;12.70;99.90;;;;;;5038860;28;20041;-73
2022/09/19 07:03:17;;;;;;;13.40;1.77;;;12.80;99.90;;;;;;5019143;28;20133;-73
2022/09/19 07:05:44;;;;;;;9.73;1.42;;;12.90;99.90;;;;;;5048679;28;20045;-73
2022/09/19 07:08:11;;;;;;;9.35;1.50;;;13.00;99.90;;;;;;5052525;28;20056;-71
2022/09/19 07:10:37;;;;;;;8.23;1.40;;;13.20;99.90;;;;;;5052223;28;20076;-73
2022/09/19 07:13:04;;;;;;;9.75;1.67;;;13.40;99.90;;;;;;5016774;28;20087;-71
2022/09/19 07:15:35;;;;;;;4.82;1.40;;;13.60;99.90;;;;;;5011722;28;20041;-72
2022/09/19 07:18:01;;;;;;;6.63;1.25;;;13.80;99.90;;;;;;5046706;28;20085;-72
2022/09/19 07:20:28;;;;;;;11.65;1.65;;;14.00;99.90;;;;;;5041271;28;20088;-72
2022/09/19 07:23:05;;;;;;;11.15;1.65;;;14.50;99.90;;;;;;5019595;28;20093;-72
2022/09/19 07:25:32;;;;;;;12.48;1.88;;;14.90;99.90;;;;;;5057839;28;20052;-72
2022/09/19 07:28:04;;;;;;;13.88;1.83;;;15.30;99.90;;;;;;5075189;28;20053;-73
2022/09/19 07:30:31;;;;;;;12.73;2.15;;;15.50;99.90;;;;;;5077343;28;20071;-72
2022/09/19 07:32:59;;;;;;;16.17;2.92;;;15.60;99.90;;;;;;5071985;28;20045;-72
2022/09/19 07:35:29;;;;;;;14.02;2.40;;;16.00;99.90;;;;;;5069298;28;20036;-72
2022/09/19 07:37:56;;;;;;;13.30;2.35;;;16.10;99.90;;;;;;5079546;28;20470;-72
2022/09/19 07:40:22;;;;;;;9.32;1.70;;;16.50;99.90;;;;;;5078655;28;20072;-72
2022/09/19 07:42:50;;;;;;;11.13;2.13;;;16.80;99.90;;;;;;5076036;28;20043;-73
2022/09/19 07:45:16;;;;;;;11.95;2.53;;;16.90;99.90;;;;;;5090277;28;20040;-72
2022/09/19 07:47:44;;;;;;;13.73;2.45;;;16.40;99.90;;;;;;5063933;28;20047;-73
2022/09/19 07:50:16;;;;;;;9.15;1.63;;;16.00;99.90;;;;;;5075320;28;20044;-72
2022/09/19 07:52:46;;;;;;;6.82;1.27;;;15.40;99.90;;;;;;5083515;28;20486;-72
2022/09/19 07:55:13;;;;;;;9.40;1.45;;;14.70;99.90;;;;;;5078525;28;20036;-72
2022/09/19 07:57:49;;;;;;;7.40;1.90;;;14.40;99.90;;;;;;5079715;28;20142;-73
2022/09/19 08:00:15;;;;;;;10.70;1.85;;;14.20;99.90;;;;;;5083668;28;20041;-73
2022/09/19 08:02:51;;;;;;;11.77;2.72;;;14.10;99.90;;;;;;5077415;28;20040;-73
2022/09/19 08:05:17;;;;;;;14.20;1.80;;;13.90;99.90;;;;;;5085582;28;20032;-73
2022/09/19 08:07:43;;;;;;;12.95;1.50;;;13.80;99.90;;;;;;5047965;28;20517;-73
2022/09/19 08:10:09;;;;;;;9.40;1.65;;;13.70;99.90;;;;;;5056699;28;20043;-72
2022/09/19 08:12:35;;;;;;;11.93;1.77;;;13.80;99.90;;;;;;5055769;28;20033;-73
2022/09/19 08:15:01;;;;;;;16.58;2.20;;;14.30;99.90;;;;;;5080345;28;20125;-73
2022/09/19 08:17:27;;;;;;;10.25;2.10;;;15.30;99.90;;;;;;5085919;28;20032;-73
2022/09/19 08:19:54;;;;;;;11.55;2.08;;;16.40;99.90;;;;;;5086827;28;20072;-73
2022/09/19 08:22:20;;;;;;;13.95;2.00;;;17.30;99.90;;;;;;5087921;28;20480;-73
2022/09/19 08:24:45;;;;;;;11.73;2.30;;;18.20;99.90;;;;;;5083290;28;20052;-73
2022/09/19 08:27:11;;;;;;;18.00;2.55;;;19.00;99.90;;;;;;5085101;28;20036;-73
2022/09/19 08:29:38;;;;;;;14.02;2.15;;;19.40;99.90;;;;;;5065473;28;20466;-73
2022/09/19 08:32:04;;;;;;;12.23;1.90;;;19.70;99.90;;;;;;5073908;28;20048;-73
2022/09/19 08:34:29;;;;;;;8.38;1.85;;;19.80;99.90;;;;;;5074024;28;20388;-73
2022/09/19 08:36:58;;;;;;;14.63;1.92;;;20.10;99.90;;;;;;5089318;28;20043;-73
2022/09/19 08:39:25;;;;;;;14.27;2.35;;;20.40;99.90;;;;;;5083323;28;20032;-73
2022/09/19 08:41:54;;;;;;;8.70;1.67;;;20.30;99.90;;;;;;5071505;28;20115;-73
2022/09/19 08:44:45;;;;;;;9.40;1.85;;;20.40;99.90;;;;;;5083391;28;20036;-73
2022/09/19 08:47:18;;;;;;;15.45;1.90;;;20.80;99.90;;;;;;5073680;28;20037;-73
2022/09/19 08:49:50;;;;;;;10.10;1.80;;;21.00;99.90;;;;;;5079510;28;20032;-73
2022/09/19 08:52:36;;;;;;;10.38;1.58;;;21.10;99.90;;;;;;5058440;28;20047;-72
2022/09/19 08:55:07;;;;;;;9.43;1.70;;;21.10;99.90;;;;;;5085204;28;20032;-73
2022/09/19 08:57:34;;;;;;;9.00;1.58;;;21.40;99.90;;;;;;5066411;28;20052;-73
2022/09/19 09:00:20;;;;;;;7.70;1.50;;;21.50;99.90;;;;;;5079072;28;20056;-74
2022/09/19 09:02:55;;;;;;;8.63;1.83;;;21.60;99.90;;;;;;5085531;28;20128;-73
2022/09/19 09:05:43;;;;;;;8.77;1.40;;;21.80;99.90;;;;;;5061326;28;20044;-73
2022/09/19 09:08:30;;;;;;;7.07;1.40;;;22.00;99.90;;;;;;5073982;28;20042;-74
2022/09/19 09:11:03;;;;;;;;;;;22.10;99.90;;;;;;5085607;28;20035;-74
2022/09/19 09:14:14;;;;;;;9.05;1.30;;;22.10;99.90;;;;;;5072247;28;20046;-73
2022/09/19 09:16:55;;;;;;;7.63;1.42;;;22.10;99.90;;;;;;5064833;28;20044;-74
2022/09/19 09:19:44;;;;;;;11.65;1.85;;;22.10;99.90;;;;;;5075352;28;20504;-73
2022/09/19 09:22:18;;;;;;;10.52;1.63;;;22.00;99.90;;;;;;5082592;28;20417;-73
2022/09/19 09:25:00;;;;;;;10.77;1.90;;;21.00;99.90;;;;;;5042040;28;20054;-74
2022/09/19 09:27:35;;;;;;;9.57;2.03;;;20.00;99.90;;;;;;5015091;28;20081;-73
2022/09/19 09:30:16;;;;;;;8.00;1.77;;;19.40;99.90;;;;;;5020547;28;20052;-73
2022/09/19 09:32:49;;;;;;;9.75;1.67;;;19.30;99.90;;;;;;5062325;28;20043;-73
2022/09/19 09:35:39;;;;;;;9.48;1.58;;;19.80;99.90;;;;;;5045322;28;20089;-73
2022/09/19 09:38:37;;;;;;;9.73;1.67;;;20.30;99.90;;;;;;5049289;28;20032;-73
2022/09/19 09:44:09;;;;;;;6.18;0.80;;;20.80;99.90;;;;;;5013062;28;20044;-73
2022/09/19 09:46:50;;;;;;;11.75;1.67;;;19.80;99.90;;;;;;4993452;28;20074;-73
2022/09/19 09:49:18;;;;;;;9.52;1.63;;;17.60;99.90;;;;;;5003078;28;20044;-72
2022/09/19 09:52:03;;;;;;;4.97;1.25;;;17.20;99.90;;;;;;4993853;28;20042;-73
2022/09/19 09:57:32;;;;;;;;;;;16.40;99.90;;;;;;5036237;28;20104;-73
2022/09/19 10:03:34;;;;;;;9.95;1.50;;;16.00;99.90;;;;;;5030247;28;20044;-73
2022/09/19 10:06:08;;;;;;;11.85;1.80;;;15.90;99.90;;;;;;5029937;28;20044;-73
2022/09/19 10:08:43;;;;;;;11.43;1.50;;;15.90;99.90;;;;;;5020250;28;20044;-72
2022/09/19 10:11:20;;;;;;;8.90;1.92;;;15.90;99.90;;;;;;4987620;28;20079;-73
2022/09/19 10:13:55;;;;;;;11.70;1.73;;;15.80;99.90;;;;;;5036742;28;20501;-73
2022/09/19 10:16:21;;;;;;;10.30;1.52;;;15.70;99.90;;;;;;5009390;28;20047;-73
2022/09/19 10:18:53;;;;;;;11.65;1.90;;;15.70;99.90;;;;;;5036240;28;20062;-73
2022/09/19 10:21:18;;;;;;;10.77;1.75;;;15.80;99.90;;;;;;5026096;28;20073;-73
2022/09/19 10:23:56;;;;;;;7.82;1.83;;;16.00;99.90;;;;;;5026564;28;20071;-73
2022/09/19 10:26:27;;;;;;;9.63;1.63;;;16.10;99.90;;;;;;5063781;28;20040;-73
2022/09/19 10:28:59;;;;;;;9.85;1.30;;;16.40;99.90;;;;;;5089339;28;20090;-73
2022/09/19 10:31:34;;;;;;;10.07;1.73;;;16.60;99.90;;;;;;5082135;28;20040;-73
2022/09/19 10:34:10;;;;;;;12.18;2.22;;;16.80;99.90;;;;;;5078954;28;20521;-73
2022/09/19 10:36:46;;;;;;;13.23;1.98;;;17.40;99.90;;;;;;5077298;28;20604;-73
2022/09/19 10:39:14;;;;;;;11.73;2.20;;;17.90;99.90;;;;;;5070508;28;20043;-73
2022/09/19 10:41:44;;;;;;;7.70;1.50;;;18.40;99.90;;;;;;5088862;28;20157;-73
2022/09/19 10:44:26;;;;;;;9.80;2.17;;;18.50;99.90;;;;;;5064424;28;20067;-73
2022/09/19 10:47:00;;;;;;;12.25;1.90;;;18.60;99.90;;;;;;5063372;28;20040;-73
2022/09/19 10:49:38;;;;;;;10.60;1.80;;;19.00;99.90;;;;;;5084773;28;20063;-73
2022/09/19 10:52:04;;;;;;;8.10;1.50;;;19.70;99.90;;;;;;5071367;28;20076;-73
2022/09/19 10:54:33;;;;;;;;;;;20.30;99.90;;;;;;5059010;28;20036;-73
2022/09/19 10:57:01;;;;;;;7.20;1.20;;;20.50;99.90;;;;;;5073050;28;20342;-73
2022/09/19 10:59:36;;;;;;;5.97;1.27;;;20.80;99.90;;;;;;5082341;28;20411;-74
2022/09/19 11:02:19;;;;;;;7.65;1.25;;;21.20;99.90;;;;;;5084195;28;20441;-74
2022/09/19 11:05:00;;;;;;;6.78;1.30;;;21.40;99.90;;;;;;5058710;28;20148;-73
2022/09/19 11:07:30;;;;;;;6.82;1.40;;;21.70;99.90;;;;;;5074671;28;20040;-73
2022/09/19 11:10:04;;;;;;;10.75;1.55;;;21.70;99.90;;;;;;5066654;28;20044;-73
2022/09/19 11:12:33;;;;;;;7.40;1.30;;;21.50;99.90;;;;;;5079096;28;20101;-74
2022/09/19 11:14:59;;;;;;;7.75;1.42;;;21.60;99.90;;;;;;5079750;28;20043;-74
2022/09/19 11:17:31;;;;;;;10.15;1.70;;;21.80;99.90;;;;;;5063073;28;20040;-74
2022/09/19 11:20:16;;;;;;;6.03;1.45;;;22.40;99.90;;;;;;5085177;28;20036;-74
2022/09/19 11:23:22;;;;;;;9.82;1.20;;;22.40;99.90;;;;;;5084809;28;20051;-73
2022/09/19 11:25:58;;;;;;;7.95;1.50;;;21.90;99.90;;;;;;5082173;28;20498;-73
2022/09/19 11:28:45;;;;;;;9.77;1.75;;;21.30;99.90;;;;;;5064991;28;20037;-74
2022/09/19 11:31:35;;;;;;;9.20;1.45;;;20.80;99.90;;;;;;5081781;28;20043;-73
2022/09/19 11:34:22;;;;;;;10.10;1.67;;;20.20;99.90;;;;;;5076778;28;20097;-74
2022/09/19 11:36:57;;;;;;;7.93;1.40;;;20.00;99.90;;;;;;5076205;28;20071;-73
2022/09/19 11:39:49;;;;;;;8.90;1.25;;;20.50;99.90;;;;;;5058024;28;20290;-74
2022/09/19 11:42:47;;;;;;;8.75;1.35;;;21.10;99.90;;;;;;5080255;28;20036;-73
2022/09/19 11:45:18;;;;;;;9.25;1.30;;;21.50;99.40;;;;;;5085844;28;20085;-74
2022/09/19 11:48:09;;;;;;;7.80;1.10;;;21.80;99.10;;;;;;5078508;28;20037;-73
2022/09/19 11:51:02;;;;;;;9.05;1.50;;;21.60;99.90;;;;;;5056272;28;20079;-73
2022/09/19 11:53:36;;;;;;;10.38;1.52;;;21.70;99.30;;;;;;5080950;28;20059;-74
2022/09/19 11:56:14;;;;;;;7.85;1.65;;;22.40;99.90;;;;;;5077240;28;20469;-74
2022/09/19 11:58:51;;;;;;;6.80;1.60;;;23.30;98.90;;;;;;5079146;28;20474;-74
2022/09/19 12:01:47;;;;;;;9.93;1.23;;;23.70;98.90;;;;;;5078999;28;20039;-74
2022/09/19 12:04:34;;;;;;;6.77;1.30;;;23.50;97.70;;;;;;5066737;28;20051;-74
2022/09/19 12:07:43;;;;;;;9.50;1.55;;;22.70;97.40;;;;;;5061141;28;20048;-74
2022/09/19 12:10:19;;;;;;;8.13;1.30;;;21.80;99.00;;;;;;5074167;28;20076;-74
2022/09/19 12:12:58;;;;;;;7.73;1.53;;;21.70;98.80;;;;;;5082206;28;20041;-74
2022/09/19 12:15:28;;;;;;;9.82;1.60;;;21.60;98.30;;;;;;5083543;28;20039;-74
2022/09/19 12:18:16;;;;;;;7.72;1.65;;;22.20;98.40;;;;;;5085204;28;20028;-74
2022/09/19 12:20:48;;;;;;;7.18;1.40;;;22.90;98.60;;;;;;5078659;28;20040;-74
2022/09/19 12:26:36;;;;;;;8.10;1.17;;;21.60;98.00;;;;;;5041987;28;20386;-74
2022/09/19 12:29:15;;;;;;;9.18;1.50;;;21.40;99.30;;;;;;5015070;28;20037;-74
2022/09/19 12:31:47;;;;;;;7.15;1.33;;;22.00;98.70;;;;;;5013323;28;20042;-74
2022/09/19 12:34:49;;;;;;;6.32;1.10;;;22.50;97.80;;;;;;5011309;28;20125;-74
2022/09/19 12:37:29;;;;;;;5.65;1.25;;;22.80;97.90;;;;;;5043565;28;20036;-74
2022/09/19 12:40:15;;;;;;;8.45;1.73;;;23.00;97.60;;;;;;5016662;28;20081;-74
2022/09/19 12:42:52;;;;;;;6.35;1.20;;;23.30;97.70;;;;;;5038159;28;20042;-74
2022/09/19 12:45:48;;;;;;;8.40;1.40;;;22.40;96.50;;;;;;5020369;28;20043;-74
2022/09/19 12:48:42;;;;;;;8.25;1.63;;;21.80;97.70;;;;;;5009548;28;20396;-74
2022/09/19 12:51:13;;;;;;;8.95;1.42;;;21.10;97.80;;;;;;5047881;28;20061;-74
2022/09/19 12:54:01;;;;;;;8.73;1.50;;;20.90;98.80;;;;;;5027625;28;20055;-74
2022/09/19 12:56:40;;;;;;;8.18;1.50;;;21.60;99.10;;;;;;5048703;28;20507;-74
2022/09/19 12:59:19;;;;;;;9.82;1.25;;;22.20;97.60;;;;;;4992116;28;20537;-74
2022/09/19 13:01:55;;;;;;;6.93;1.50;;;23.10;97.80;;;;;;5049330;28;20033;-74
2022/09/19 13:04:47;;;;;;;6.90;1.02;;;23.40;97.30;;;;;;5031414;28;20042;-74
2022/09/19 13:07:19;;;;;;;9.20;1.40;;;22.80;97.60;;;;;;5018284;28;20048;-74
2022/09/19 13:09:58;;;;;;;8.35;1.95;;;22.30;98.90;;;;;;5054077;28;20115;-74
2022/09/19 13:12:52;;;;;;;6.22;1.33;;;22.60;99.10;;;;;;4979869;28;20470;-74
2022/09/19 13:15:32;;;;;;;7.53;1.20;;;22.50;98.40;;;;;;4996821;28;20039;-74
2022/09/19 13:23:38;;;;;;;7.63;1.70;;;20.20;99.90;;;;;;5014332;28;20058;-73
2022/09/19 13:26:37;;;;;;;9.65;1.58;;;19.60;99.90;;;;;;5074572;28;20107;-73
2022/09/19 13:29:26;;;;;;;7.55;1.50;;;19.30;99.90;;;;;;5076413;28;20386;-72
2022/09/19 13:31:59;;;;;;;7.07;1.27;;;19.00;99.90;;;;;;5073658;28;20044;-73
2022/09/19 13:34:44;;;;;;;6.97;1.30;;;18.60;99.90;;;;;;5065439;28;20040;-73